Архив погоды в Самаре

Метеограмма Самара обсерватория
Вторник, 16 Октября
Время местн. Темп Ветер Видим Явления Облачность нижн/средн/верх Атм. давл. Влжн Точка росы ВНГО R Сост. почвы Tg s
Напр Скр Прв ур.ст ур.м изм
19:00 +10.7° штиль 0 - 10 км - переменная облачность 754 767 +0.2 72% +5.8° более 2.5 км 0 - - -
16:00 +18.3° С-З 3 - 10 км - ясно 754 766 -0.2 44% +5.9° более 2.5 км - - - -
13:00 +15.7° З 2 - 10 км - переменная облачность 754 766 -0.4 68% +9.9° более 2.5 км - - - -
10:00 +12.6° З 2 - 10 км небо без изменений {морось, туман} преимущественно облачно 754 767 -0.2 84% +9.9° 1 км - - - -
07:00 +10.1° З 2 - 4 км слабая замерзающая морось {туман} облачно 754 767 +0.1 100% +10.1° 600 м 0 Влажная (без луж) - -
04:00 +8.7° З 2 - 10 км - облачно 755 767 0 90% +7.2° - - - - -
01:00 +8.9° З 1 - 10 км - облачно 755 767 -0.2 84% +6.3° - - - - -
Понедельник, 15 Октября
Время местн. Темп Ветер Видим Явления Облачность нижн/средн/верх Атм. давл. Влжн Точка росы ВНГО R Сост. почвы Tg s
Напр Скр Прв ур.ст ур.м изм
22:00 +8.7° З 2 - 10 км - облачно 755 768 +0.1 74% +4.4° - - - - -
19:00 +9.1° З 2 - 10 км - облачно 755 768 +0.3 61% +1.9° - 0 - - -
16:00 +8.9° З,Ю-З 2 - 10 км - преимущественно облачно 755 768 -0.4 56% +0.6° - - - - -
13:00 +7.5° З 2 - 10 км - облачно 755 768 -0.2 58% -0.3° - - - - -
10:00 +5.7° З,Ю-З 1 - 10 км - облачно 755 768 -0.1 67% +0.1° - - - - -
07:00 +3.6° З,С-З 1 - 10 км - облачно 755 768 +0.2 81% +0.7° - 0 Сухая (без трещин) - -
04:00 +1.6° штиль 0 - 10 км - облачно с прояснениями 755 768 -0.1 85% -0.7° - - - - -
01:00 +2.3° штиль 0 - 10 км - облачно 755 768 +0.2 68% -2.9° - - - - -
Воскресенье, 14 Октября
Время местн. Темп Ветер Видим Явления Облачность нижн/средн/верх Атм. давл. Влжн Точка росы ВНГО R Сост. почвы Tg s
Напр Скр Прв ур.ст ур.м изм
22:00 +4.3° С 1 - 10 км - облачно 755 768 +0.2 61% -2.5° - - - - -
19:00 +4.6° С 1 - 10 км - облачно 755 768 +0.2 52% -4.5° - 0 - - -
16:00 +7° С-З 1 - 10 км - преимущественно облачно 755 768 -0.3 46% -3.8° - - - - -
13:00 +5.2° С 2 - 10 км - переменная облачность 755 768 +0.2 58% -2.3° - - - - -
10:00 +3.8° С 2 - 10 км - облачно с прояснениями 755 768 +0.5 85% +1.5° 600 м - - - -
07:00 +1.2° С 1 - 10 км - переменная облачность 755 768 +0.2 88% -0.5° более 2.5 км 0 Замерзшая - -
04:00 +2° штиль 0 - 10 км - ясно 754 768 +0.1 85% -0.2° более 2.5 км - - - -
01:00 +5.1° С 1 - 10 км - облачно с прояснениями 754 767 -0.1 79% +1.7° 1 км - - - -
Суббота, 13 Октября
Время местн. Темп Ветер Видим Явления Облачность нижн/средн/верх Атм. давл. Влжн Точка росы ВНГО R Сост. почвы Tg s
Напр Скр Прв ур.ст ур.м изм
22:00 +5° З 1 - 10 км - переменная облачность 754 767 +0.2 83% +2.3° 1 км - - - -
19:00 +6.9° З 2 - 10 км - переменная облачность 754 767 -0.5 68% +1.4° 1 км 0 - - -
16:00 +9.4° С,С-З 2 - 10 км - облачно 755 768 -0.2 44% -2.2° 1 км - - - -